x

South Kodiak - 310nm Ssw Of Kodiak, Ak (46066) Wave Buoy

7:50am - Thu 25th May 2017 All times are UTC.

  • Sig Wave height 8.5ft
  • Swell Direction
  • Peak Period 9s
  • Average Period 7s
  • Wind
    13mph, 18mph gusts
  • Sea Temp 43°f
  • Air Temp 43°f
  • Sea Pressure 1025.1mb

More Historic Weather Station data

Upgrade to MSW Pro to gain access to the past 30 days of data for over 8000 Wavebouys and Weather Stations around the globe.

Join Pro

Comparision Forecast

View Surf forecast
   
Thu 05/25 7:50am 8.5ft 9s 7s 13 18 mph 1025.1mb 43f 43f
6:50am 9ft 9s 7s 11 16 mph 1025mb 43f 43f
5:50am 8.5ft 11s 7s 11 16 mph 1024.9mb 43f 43f
4:50am 9ft 11s 7s 11 13 mph 1024.9mb 43f 43f
3:50am 11ft 11s 8s 9 11 mph 1025mb 43f 44f
2:50am 10ft 10s 8s 9 11 mph 1025.2mb 43f 44f
1:50am 11ft 11s 8s 7 11 mph 1025.3mb 43f 44f
12:50am 11ft 10s 8s 9 11 mph 1025.3mb 43f 44f
Wed 05/24 11:50pm 10ft 11s 7s 11 13 mph 1025.5mb 43f 43f
10:50pm 11.5ft 11s 7s 16 20 mph 1025.2mb 43f 44f
9:50pm 10.5ft 10s 7s 18 22 mph 1025mb 43f 44f
8:50pm 11ft 10s 7s 20 25 mph 1024.9mb 43f 44f
7:50pm 11.5ft 9s 7s 22 27 mph 1024.9mb 43f 44f
6:50pm 11ft 9s 7s 25 29 mph 1024.6mb 43f 44f
5:50pm 11ft 9s 7s 25 29 mph 1024.8mb 43f 44f
4:50pm 12ft 10s 7s 27 34 mph 1024.6mb 43f 44f
3:50pm 11.5ft 9s 7s 27 31 mph 1024.6mb 43f 44f
2:50pm 12ft 9s 7s 27 31 mph 1024.6mb 43f 44f
1:50pm 12ft 9s 7s 27 34 mph 1024.7mb 43f 44f
12:50pm 11ft 9s 7s 27 34 mph 1025.2mb 43f 44f
11:50am 11ft 9s 7s 27 34 mph 1025.5mb 43f 44f
10:50am 9.5ft 8s 6s 27 31 mph 1025.9mb 43f 44f
9:50am 10ft 8s 6s 27 31 mph 1026.1mb 43f 44f
8:50am 10ft 9s 6s 25 31 mph 1026.4mb 43f 44f
7:50am 10ft 9s 6s 27 31 mph 1026.6mb 43f 44f
6:50am 9ft 8s 6s 25 31 mph 1027mb 43f 44f
5:50am 9ft 8s 6s 25 31 mph 1027.2mb 43f 44f
4:50am 9ft 8s 6s 25 29 mph 1027.4mb 43f 44f
3:50am 11ft 8s 7s 25 29 mph 1027.7mb 43f 44f
2:50am 10ft 8s 6s 27 29 mph 1027.9mb 43f 44f
1:50am 10ft 8s 7s 27 31 mph 1027.9mb 43f 44f
12:50am 9.5ft 9s 7s 25 31 mph 1028.1mb 43f 44f
Tue 05/23 11:50pm 8.5ft 8s  -  25 31 mph 1028.3mb 43f 44f
10:50pm 9.5ft 8s 6s 27 31 mph 1028.5mb 43f 44f
9:50pm 9ft 8s 6s 27 31 mph 1028.7mb 43f 44f
8:50pm 8ft 9s 6s 27 34 mph 1028.8mb 43f 44f
7:50pm 8ft 9s 6s 25 31 mph 1028.7mb 43f 44f
6:50pm 7ft 8s 6s 25 31 mph 1028.5mb 43f 44f
5:50pm 7.5ft 8s 6s 22 27 mph 1028.5mb 43f 44f
4:50pm 7.5ft 8s 6s 20 25 mph 1028.3mb 43f 44f
3:50pm 8ft 9s 6s 20 25 mph 1028.3mb 43f 44f
2:50pm 8ft 9s 6s 22 29 mph 1028.3mb 43f 44f
1:50pm 7ft 8s 6s 22 29 mph 1027.8mb 43f 44f
12:50pm 8ft 10s 7s 18 22 mph 1027.8mb 43f 43f
11:50am 8ft 9s 7s 20 22 mph 1027.5mb 43f 43f
10:50am 7.5ft 9s 6s 18 22 mph 1027.3mb 43f 43f
9:50am 8ft 9s 6s 18 22 mph 1027.5mb 43f 43f
8:50am 8ft 8s 6s 20 25 mph 1026.9mb 43f 43f
7:50am 8ft 8s 6s 18 22 mph 1026.4mb 43f 44f
6:50am 8.5ft 9s 6s 20 25 mph 1025.5mb 43f 44f
5:50am 8ft 9s 6s 20 25 mph 1024.6mb 43f 44f
4:50am 9.5ft 9s 7s 18 22 mph 1023.6mb 43f 44f
3:50am 9ft 9s 7s 20 27 mph 1022.5mb 43f 44f
2:50am 9ft 8s 7s 20 27 mph 1021.7mb 43f 44f
1:50am 9.5ft 8s 6s 22 27 mph 1021.7mb 43f 44f
12:50am 10ft 8s 7s 22 27 mph 1020.9mb 43f 44f
Mon 05/22 11:50pm 9.5ft 8s 7s 22 27 mph 1019.8mb 44f 44f
10:50pm 9.5ft 8s 7s 22 29 mph 1018.6mb 44f 44f
9:50pm 10ft 8s 7s 25 31 mph 1017.3mb 44f 44f
8:50pm 9ft 10s 6s 27 31 mph 1015.9mb 44f 44f
7:50pm 9ft 7s 6s 27 31 mph 1014.6mb 43f 44f
6:50pm 8.5ft 7s 6s 25 31 mph 1013.2mb 43f 44f
5:50pm 8ft 10s 6s 27 36 mph 1012mb 43f 44f
4:50pm 8ft 11s 6s 25 31 mph 1011.1mb 43f 44f
3:50pm 8ft 10s 6s 22 29 mph 1010.1mb 43f 43f
2:50pm 7ft 11s 6s 20 25 mph 1009.5mb 44f 44f
1:50pm 7ft 11s 6s 20 22 mph 1009.1mb 44f 43f
12:50pm 6ft 11s 6s 20 25 mph 1009.2mb 44f 42f
11:50am 6ft 11s 6s 22 27 mph 1009.6mb 44f 42f
10:50am 5.5ft 11s 6s 22 27 mph 1010mb 44f 42f
9:50am 5ft 11s 6s 18 22 mph 1010.2mb 44f 43f
8:50am 5ft 10s 6s 16 20 mph 1010.9mb 44f 44f
7:50am 5ft 8s 7s 16 20 mph 1011.2mb 44f 44f
6:50am 5.5ft 11s 7s 13 18 mph 1011.1mb 44f 44f
5:50am 5ft 8s 7s 11 13 mph 1011.3mb 44f 44f
4:50am 6ft 9s 7s 9 11 mph 1011.8mb 45f 45f
3:50am 6ft 7s 7s 11 13 mph 1011.9mb 45f 45f
2:50am 6ft 11s 7s 7 9 mph 1011.7mb 46f 45f
1:50am 6ft 11s 7s 4 7 mph 1011.9mb 45f 45f
12:50am 5.5ft 8s 7s 4 7 mph 1012mb 45f 46f
Sun 05/21 11:50pm 5ft 11s 7s 4 4 mph 1011.8mb 45f 45f
10:50pm 5.5ft 8s 7s 7 7 mph 1011.4mb 45f 45f
9:50pm 5ft 11s 7s 4 7 mph 1011.1mb 44f 45f
8:50pm 6ft 12s 7s 7 11 mph 1010.9mb 44f 45f
7:50pm 5.5ft 12s 7s 9 11 mph 1010.4mb 44f 44f
6:50pm 6ft 12s 7s 9 9 mph 1009.9mb 43f 44f
5:50pm 5.5ft 12s 7s 7 9 mph 1009.3mb 43f 44f
4:50pm 6ft 11s 7s 7 9 mph 1008.8mb 43f 44f
3:50pm 6ft 12s 7s 9 11 mph 1008.1mb 43f 44f
2:50pm 6ft 13s 7s 9 11 mph 1007.4mb 43f 44f
1:50pm 6ft 11s  -  9 11 mph 1007mb 43f 43f
12:50pm 6ft 11s 8s 9 11 mph 1006.7mb 43f 43f
11:50am 6ft 13s 8s 11 16 mph 1006.3mb 43f 43f
10:50am 5ft 11s 7s 11 13 mph 1006mb 43f 43f
9:50am 6ft 11s 7s 11 13 mph 1005.5mb 43f 43f
8:50am 6ft 11s 7s 11 13 mph 1005.3mb 43f 43f